Rio Verde, Arizona
Current Conditions -  °F | °C
As of 7:53 AM on Monday 22 Dec 2014 (Local Time) from KSDL Reporting Station
Clear Clear  
Wind Chill: 46°   Ceiling: Unl
Heat Index: 46°   Visibility: 8mi
Dew Point: 40°   Wind: 0mph
Humidity: 79%   Direction: NA
Pressure: 30.03"   Gusts: NA
Location:  33.72°N, 111.67°W
Report Text: KSDL 221453Z 00000KT 8SM CLR 08/04 A3003 RMK AO2 SLP160 T00780044 50002
Loading
Personal Weather Stations






























Interactive Weather Map New forecast layout! Learn more

10-Day Weather Forecast

Advertisements
Track Severe Weather on mobile